Time;durP1;ratioP1;P1;durP2;ratioP2;P2;SDS_P1;SDS_P2;PMS_P1;PMS_P2;Temp;Humidity;BMP_temperature;BMP_pressure;BME280_temperature;BME280_humidity;BME280_pressure;Samples;Min_cycle;Max_cycle;Signal;HPM_P1;HPM_P2
2022/10/18 00:01:37;;;;;;;13.20;6.50;;;12.70;99.90;;;;;;5037804;28;20037;-74
2022/10/18 00:04:02;;;;;;;10.32;5.97;;;12.70;99.90;;;;;;5021570;28;20084;-74
2022/10/18 00:06:28;;;;;;;11.75;6.68;;;12.70;99.90;;;;;;5037945;28;20090;-74
2022/10/18 00:08:54;;;;;;;10.43;6.20;;;12.70;99.90;;;;;;5005167;28;20077;-74
2022/10/18 00:11:19;;;;;;;9.00;5.88;;;13.00;99.90;;;;;;5004933;28;20048;-75
2022/10/18 00:13:45;;;;;;;13.52;6.55;;;12.70;99.90;;;;;;5037588;28;20068;-74
2022/10/18 00:16:14;;;;;;;17.40;9.32;;;12.70;99.90;;;;;;5021125;28;20045;-74
2022/10/18 00:18:40;;;;;;;9.27;5.70;;;12.70;99.90;;;;;;5037353;28;20045;-74
2022/10/18 00:21:10;;;;;;;8.95;5.90;;;12.80;99.90;;;;;;5020957;28;20041;-74
2022/10/18 00:23:36;;;;;;;15.60;6.63;;;13.00;99.90;;;;;;5020918;28;20045;-74
2022/10/18 00:26:09;;;;;;;13.60;6.57;;;12.80;99.90;;;;;;5037357;28;20183;-75
2022/10/18 00:28:35;;;;;;;11.57;6.43;;;12.80;99.90;;;;;;5037502;28;20080;-74
2022/10/18 00:31:39;;;;;;;9.90;5.97;;;12.80;99.90;;;;;;5021048;28;20502;-75
2022/10/18 00:34:10;;;;;;;10.80;5.90;;;12.70;99.90;;;;;;5017987;28;20053;-74
2022/10/18 00:36:35;;;;;;;9.68;6.13;;;12.70;99.90;;;;;;5037228;28;20056;-74
2022/10/18 00:39:03;;;;;;;11.40;6.18;;;12.70;99.90;;;;;;5037090;28;20462;-75
2022/10/18 00:41:31;;;;;;;9.82;5.82;;;12.70;99.90;;;;;;5037295;28;20476;-75
2022/10/18 00:44:19;;;;;;;11.35;5.13;;;12.70;99.90;;;;;;5020569;28;20072;-75
2022/10/18 00:46:47;;;;;;;9.48;5.22;;;12.70;99.90;;;;;;4971159;28;20053;-75
2022/10/18 00:49:43;;;;;;;9.88;5.90;;;12.60;99.90;;;;;;5036943;28;20047;-74
2022/10/18 00:52:20;;;;;;;8.73;5.18;;;12.60;99.90;;;;;;5020658;28;20049;-74
2022/10/18 00:54:47;;;;;;;9.55;5.25;;;12.60;99.90;;;;;;5036772;28;20072;-74
2022/10/18 00:57:13;;;;;;;10.75;6.20;;;12.60;99.90;;;;;;5020316;28;20051;-75
2022/10/18 00:59:40;;;;;;;13.32;5.93;;;12.60;99.90;;;;;;5036632;28;20072;-74
2022/10/18 01:02:07;;;;;;;10.65;5.57;;;12.60;99.90;;;;;;5036875;28;20427;-75
2022/10/18 01:04:33;;;;;;;8.43;4.80;;;12.60;99.90;;;;;;5020077;28;20095;-75
2022/10/18 01:07:23;;;;;;;11.75;6.38;;;12.60;99.90;;;;;;5020168;28;20491;-74
2022/10/18 01:10:21;;;;;;;10.57;5.68;;;12.60;99.90;;;;;;5020240;28;20052;-75
2022/10/18 01:13:14;;;;;;;10.88;5.50;;;12.60;99.90;;;;;;4977320;28;20095;-74
2022/10/18 01:15:49;;;;;;;8.88;6.00;;;12.60;99.90;;;;;;5036703;28;20040;-74
2022/10/18 01:18:17;;;;;;;9.57;5.07;;;12.70;99.90;;;;;;5036523;28;20519;-74
2022/10/18 01:21:05;;;;;;;10.63;5.68;;;12.70;99.90;;;;;;5036255;28;20041;-74
2022/10/18 01:24:08;;;;;;;11.65;5.72;;;12.70;99.90;;;;;;5036340;28;20037;-74
2022/10/18 01:27:03;;;;;;;9.18;5.32;;;12.60;99.90;;;;;;5036241;28;20120;-74
2022/10/18 01:29:29;;;;;;;13.10;5.80;;;12.60;99.90;;;;;;5019732;28;20076;-74
2022/10/18 01:32:06;;;;;;;10.25;5.45;;;12.70;99.90;;;;;;5036090;28;20083;-75
2022/10/18 01:34:35;;;;;;;9.18;5.18;;;12.70;99.90;;;;;;5036009;28;20499;-74
2022/10/18 01:37:03;;;;;;;10.30;5.53;;;12.60;99.90;;;;;;5019674;28;20132;-74
2022/10/18 01:39:35;;;;;;;6.85;4.65;;;12.60;99.90;;;;;;5019506;28;20049;-74
2022/10/18 01:42:04;;;;;;;9.20;6.07;;;12.60;99.90;;;;;;5035906;28;20029;-74
2022/10/18 01:44:32;;;;;;;9.10;5.03;;;12.60;99.90;;;;;;5019332;28;20041;-74
2022/10/18 01:46:58;;;;;;;8.98;5.45;;;12.50;99.90;;;;;;5002926;28;20041;-74
2022/10/18 01:49:25;;;;;;;10.70;5.60;;;12.50;99.90;;;;;;5019609;28;20549;-74
2022/10/18 01:51:51;;;;;;;9.85;5.70;;;12.50;99.90;;;;;;5035711;28;20080;-74
2022/10/18 01:54:24;;;;;;;8.43;5.35;;;12.50;99.90;;;;;;5019186;28;20040;-74
2022/10/18 01:57:02;;;;;;;11.25;5.75;;;12.50;99.90;;;;;;5035931;28;20396;-74
2022/10/18 01:59:45;;;;;;;10.30;5.60;;;12.50;99.90;;;;;;5034857;28;20571;-74
2022/10/18 02:02:38;;;;;;;9.57;5.32;;;12.50;99.90;;;;;;5019158;28;20044;-74
2022/10/18 02:05:27;;;;;;;11.95;5.35;;;12.40;99.90;;;;;;5035523;28;20051;-74
2022/10/18 02:08:05;;;;;;;9.48;5.53;;;12.40;99.90;;;;;;5035711;28;20509;-74
2022/10/18 02:10:37;;;;;;;10.10;6.10;;;12.50;99.90;;;;;;5035381;28;20045;-75
2022/10/18 02:13:03;;;;;;;8.90;5.63;;;12.50;99.90;;;;;;5035380;28;20106;-74
2022/10/18 02:15:36;;;;;;;11.00;5.57;;;12.50;99.90;;;;;;5035384;28;20041;-75
2022/10/18 02:18:07;;;;;;;10.60;6.13;;;12.50;99.90;;;;;;5018882;28;20498;-75
2022/10/18 02:20:35;;;;;;;9.15;5.93;;;12.50;99.90;;;;;;5035191;28;20124;-74
2022/10/18 02:23:03;;;;;;;8.02;4.80;;;12.50;99.90;;;;;;5002590;28;20045;-74
2022/10/18 02:25:32;;;;;;;12.23;5.57;;;12.80;99.90;;;;;;5035177;28;20051;-74
2022/10/18 02:27:58;;;;;;;9.63;5.70;;;12.50;99.90;;;;;;5034935;28;20045;-74
2022/10/18 02:30:48;;;;;;;9.88;5.95;;;12.50;99.90;;;;;;5018687;28;20102;-74
2022/10/18 02:33:37;;;;;;;13.70;5.07;;;12.50;99.90;;;;;;4995361;28;20057;-74
2022/10/18 02:36:11;;;;;;;10.07;5.82;;;12.50;99.90;;;;;;5022768;28;20049;-75
2022/10/18 02:38:40;;;;;;;11.75;6.72;;;12.50;99.90;;;;;;5034875;28;20051;-74
2022/10/18 02:41:06;;;;;;;9.25;6.22;;;12.50;99.90;;;;;;5034970;28;20044;-74
2022/10/18 02:43:32;;;;;;;9.52;5.20;;;12.40;99.90;;;;;;5018881;28;20894;-74
2022/10/18 02:45:57;;;;;;;8.45;4.95;;;12.40;99.90;;;;;;5018733;28;20045;-74
2022/10/18 02:48:23;;;;;;;12.65;6.30;;;12.60;99.90;;;;;;5018560;28;20068;-74
2022/10/18 02:50:49;;;;;;;11.07;6.32;;;12.40;99.90;;;;;;5034895;28;20041;-74
2022/10/18 02:53:14;;;;;;;10.50;5.85;;;12.40;99.90;;;;;;5018346;28;20049;-74
2022/10/18 02:55:40;;;;;;;9.35;5.85;;;12.40;99.90;;;;;;5018486;28;20142;-74
2022/10/18 02:58:06;;;;;;;9.80;5.63;;;12.40;99.90;;;;;;5002128;28;20494;-74
2022/10/18 03:00:31;;;;;;;10.15;6.07;;;12.40;99.90;;;;;;5018730;28;20053;-74
2022/10/18 03:02:57;;;;;;;9.85;5.93;;;12.40;99.90;;;;;;5035125;28;20048;-76
2022/10/18 03:05:23;;;;;;;14.07;5.93;;;12.50;99.90;;;;;;5018381;28;20123;-74
2022/10/18 03:07:49;;;;;;;17.58;6.72;;;12.50;99.90;;;;;;5034721;28;20041;-74
2022/10/18 03:10:14;;;;;;;11.80;6.15;;;12.50;99.90;;;;;;5035080;28;20047;-74
2022/10/18 03:12:40;;;;;;;12.02;6.47;;;12.50;99.90;;;;;;5022496;28;20055;-75
2022/10/18 03:15:06;;;;;;;9.40;6.22;;;12.60;99.90;;;;;;5022253;28;20073;-74
2022/10/18 03:17:32;;;;;;;16.00;6.82;;;12.60;99.90;;;;;;5005801;28;20132;-74
2022/10/18 03:23:16;;;;;;;21.15;5.95;;;12.70;99.90;;;;;;5034850;28;20128;-65
2022/10/18 03:25:42;;;;;;;24.88;5.88;;;12.70;99.90;;;;;;5018423;28;20148;-65
2022/10/18 03:28:08;;;;;;;18.13;6.72;;;12.90;99.90;;;;;;5036298;28;20400;-65
2022/10/18 03:30:33;;;;;;;16.10;5.88;;;12.70;99.90;;;;;;5036229;28;20049;-65
2022/10/18 03:32:59;;;;;;;17.23;5.88;;;12.70;99.90;;;;;;5036403;28;20122;-65
2022/10/18 03:35:25;;;;;;;12.15;4.88;;;12.70;99.90;;;;;;5036512;28;20527;-65
2022/10/18 03:40:20;;;;;;;15.82;5.75;;;12.70;99.90;;;;;;5057022;23;20045;-75
2022/10/18 03:42:46;;;;;;;7.65;5.30;;;12.70;99.90;;;;;;5038282;28;20098;-74
2022/10/18 03:45:11;;;;;;;8.73;5.65;;;12.70;99.90;;;;;;5038491;28;20417;-75
2022/10/18 03:47:37;;;;;;;7.82;5.22;;;12.70;99.90;;;;;;5038515;28;20045;-74
2022/10/18 03:50:03;;;;;;;15.20;4.68;;;12.70;99.90;;;;;;5038123;28;20044;-74
2022/10/18 03:52:29;;;;;;;15.00;4.95;;;12.70;99.90;;;;;;5038163;28;20049;-74
2022/10/18 03:54:54;;;;;;;8.25;4.60;;;12.70;99.90;;;;;;5021513;28;20041;-74
2022/10/18 03:57:20;;;;;;;7.25;4.32;;;12.70;99.90;;;;;;5037848;28;20037;-74
2022/10/18 03:59:47;;;;;;;9.18;4.97;;;12.70;99.90;;;;;;5021815;28;20041;-74
2022/10/18 04:02:13;;;;;;;10.02;4.47;;;12.70;99.90;;;;;;5005296;28;20120;-74
2022/10/18 04:04:39;;;;;;;9.25;4.70;;;12.70;99.90;;;;;;5038122;28;20610;-74
2022/10/18 04:07:04;;;;;;;6.05;3.75;;;12.70;99.90;;;;;;5021379;28;20068;-74
2022/10/18 04:09:30;;;;;;;7.60;4.25;;;12.60;99.90;;;;;;5037635;28;20041;-74
2022/10/18 04:11:56;;;;;;;9.52;4.63;;;12.70;99.90;;;;;;5037629;28;20150;-74
2022/10/18 04:14:22;;;;;;;13.35;4.10;;;12.70;99.90;;;;;;5021208;28;20043;-74
2022/10/18 04:16:47;;;;;;;12.38;3.88;;;12.70;99.90;;;;;;5037552;28;20044;-74
2022/10/18 04:19:13;;;;;;;12.80;4.43;;;12.60;99.90;;;;;;5037489;28;20492;-74
2022/10/18 04:21:39;;;;;;;5.43;3.60;;;12.70;99.90;;;;;;5020890;28;20037;-74
2022/10/18 04:24:05;;;;;;;9.48;4.97;;;12.60;99.90;;;;;;5020737;28;20041;-74
2022/10/18 04:26:31;;;;;;;9.48;4.25;;;12.60;99.90;;;;;;5037704;28;20087;-74
2022/10/18 04:28:56;;;;;;;8.48;4.82;;;12.70;99.90;;;;;;5037423;28;20044;-74
2022/10/18 04:31:22;;;;;;;10.32;3.88;;;12.60;99.90;;;;;;5037304;28;20123;-74
2022/10/18 04:33:48;;;;;;;11.23;4.65;;;12.70;99.90;;;;;;5020796;28;20144;-74
2022/10/18 04:36:14;;;;;;;8.43;4.82;;;12.60;99.90;;;;;;5037350;28;20112;-74
2022/10/18 04:38:39;;;;;;;11.55;4.40;;;12.70;99.90;;;;;;5020476;28;20044;-74
2022/10/18 04:41:05;;;;;;;7.97;4.85;;;12.60;99.90;;;;;;4988429;28;20080;-74
2022/10/18 04:43:31;;;;;;;6.18;3.88;;;12.60;99.90;;;;;;5020639;28;20037;-74
2022/10/18 04:45:57;;;;;;;9.13;3.88;;;12.60;99.90;;;;;;5020870;28;20053;-74
2022/10/18 04:48:22;;;;;;;4.22;3.15;;;12.60;99.90;;;;;;5037172;28;20044;-74
2022/10/18 04:50:49;;;;;;;8.02;3.88;;;12.60;99.90;;;;;;5020653;28;20041;-74
2022/10/18 04:53:16;;;;;;;5.85;3.67;;;12.60;99.90;;;;;;5020571;28;20048;-75
2022/10/18 04:55:47;;;;;;;6.03;3.58;;;12.60;99.90;;;;;;5020722;28;20045;-74
2022/10/18 04:58:13;;;;;;;4.88;3.47;;;12.50;99.90;;;;;;5036927;28;20033;-74
2022/10/18 05:00:40;;;;;;;5.20;3.67;;;12.50;99.90;;;;;;5036723;28;20037;-74
2022/10/18 05:03:06;;;;;;;10.45;4.15;;;12.50;99.90;;;;;;5036746;28;20044;-74
2022/10/18 05:05:32;;;;;;;6.40;3.55;;;12.50;99.90;;;;;;5037051;28;20495;-74
2022/10/18 05:07:57;;;;;;;6.50;3.88;;;12.50;99.90;;;;;;5003942;28;20076;-74
2022/10/18 05:10:23;;;;;;;6.75;4.00;;;12.50;99.90;;;;;;5036683;28;20407;-74
2022/10/18 05:12:48;;;;;;;9.35;3.50;;;12.40;99.90;;;;;;5036927;28;20041;-75
2022/10/18 05:15:14;;;;;;;5.50;3.63;;;12.40;99.90;;;;;;5036668;28;20041;-74
2022/10/18 05:17:40;;;;;;;7.18;3.90;;;12.40;99.90;;;;;;5003652;28;20037;-74
2022/10/18 05:20:06;;;;;;;4.70;3.60;;;12.40;99.90;;;;;;5003969;28;20042;-74
2022/10/18 05:22:31;;;;;;;6.97;3.60;;;12.30;99.90;;;;;;5020153;28;20068;-74
2022/10/18 05:24:57;;;;;;;5.90;4.00;;;12.30;99.90;;;;;;5036396;28;20032;-74
2022/10/18 05:27:23;;;;;;;5.50;3.42;;;12.30;99.90;;;;;;5036197;28;20041;-74
2022/10/18 05:29:49;;;;;;;6.70;3.70;;;12.20;99.90;;;;;;5019843;28;20080;-74
2022/10/18 05:32:14;;;;;;;5.05;3.20;;;12.20;99.90;;;;;;5036178;28;20037;-74
2022/10/18 05:34:40;;;;;;;7.90;3.63;;;12.10;99.90;;;;;;5035259;28;20483;-74
2022/10/18 05:37:06;;;;;;;5.30;3.53;;;12.10;99.90;;;;;;5036258;28;20044;-74
2022/10/18 05:39:31;;;;;;;7.50;4.03;;;12.00;99.90;;;;;;5019481;28;20052;-74
2022/10/18 05:41:58;;;;;;;7.20;3.85;;;12.00;99.90;;;;;;5036371;28;20048;-74
2022/10/18 05:44:24;;;;;;;6.05;3.60;;;12.00;99.90;;;;;;5020025;28;20480;-74
2022/10/18 05:46:50;;;;;;;8.93;3.90;;;12.00;99.90;;;;;;5036206;28;20048;-75
2022/10/18 05:49:15;;;;;;;10.60;3.60;;;11.90;99.90;;;;;;5035996;28;20055;-75
2022/10/18 05:51:41;;;;;;;6.57;3.63;;;11.90;99.90;;;;;;5019531;28;20515;-74
2022/10/18 05:54:08;;;;;;;6.03;2.90;;;11.90;99.90;;;;;;5035884;28;20128;-75
2022/10/18 05:56:33;;;;;;;7.25;3.58;;;11.90;99.90;;;;;;5019137;28;20044;-74
2022/10/18 05:58:59;;;;;;;10.07;3.97;;;11.90;99.90;;;;;;5035670;28;20048;-74
2022/10/18 06:01:25;;;;;;;7.68;3.17;;;11.80;99.90;;;;;;5019193;28;20307;-74
2022/10/18 06:03:50;;;;;;;5.63;3.30;;;11.80;99.90;;;;;;5019097;28;20091;-74
2022/10/18 06:06:16;;;;;;;9.75;3.42;;;11.80;99.90;;;;;;5019384;28;20506;-74
2022/10/18 06:08:43;;;;;;;11.65;3.50;;;11.80;99.90;;;;;;5019112;28;20041;-74
2022/10/18 06:11:11;;;;;;;5.55;3.00;;;11.70;99.90;;;;;;5035517;28;20041;-74
2022/10/18 06:13:44;;;;;;;8.20;3.33;;;11.70;99.90;;;;;;5018833;28;20052;-74
2022/10/18 06:16:11;;;;;;;9.73;3.38;;;11.70;99.90;;;;;;5018712;28;20060;-74
2022/10/18 06:18:37;;;;;;;6.60;3.45;;;11.70;99.90;;;;;;5035303;28;20087;-74
2022/10/18 06:21:03;;;;;;;14.80;3.42;;;11.70;99.90;;;;;;5035594;28;20039;-74
2022/10/18 06:23:29;;;;;;;7.28;3.42;;;11.70;99.90;;;;;;5018597;28;20037;-74
2022/10/18 06:28:30;;;;;;;6.70;3.00;;;11.60;99.90;;;;;;4353320;26;20049;-65
2022/10/18 06:30:56;;;;;;;7.45;2.85;;;11.60;99.90;;;;;;5032690;28;20052;-65
2022/10/18 06:33:22;;;;;;;7.95;2.40;;;11.60;99.90;;;;;;5033184;28;20041;-65
2022/10/18 06:35:59;;;;;;;5.55;3.03;;;11.60;99.90;;;;;;5033172;28;20048;-66
2022/10/18 06:38:25;;;;;;;5.38;3.08;;;11.60;99.90;;;;;;5033160;28;20484;-65
2022/10/18 06:40:52;;;;;;;7.10;2.95;;;11.60;99.90;;;;;;5032846;28;20041;-65
2022/10/18 06:45:48;;;;;;;3.42;2.20;;;11.60;99.90;;;;;;5041750;22;20049;-73
2022/10/18 06:48:13;;;;;;;18.23;2.97;;;11.50;99.90;;;;;;5034956;28;20045;-72
2022/10/18 06:50:39;;;;;;;7.60;3.08;;;12.00;99.90;;;;;;5002183;28;20170;-72
2022/10/18 06:53:07;;;;;;;4.25;2.70;;;11.40;99.90;;;;;;5034873;28;20037;-72
2022/10/18 06:55:33;;;;;;;4.28;2.88;;;11.40;99.90;;;;;;5002488;28;20178;-72
2022/10/18 06:57:59;;;;;;;4.97;2.97;;;11.30;99.90;;;;;;5034693;28;20037;-72
2022/10/18 07:00:25;;;;;;;4.95;3.03;;;11.30;99.90;;;;;;5035160;28;20111;-72
2022/10/18 07:02:51;;;;;;;4.85;2.95;;;11.30;99.90;;;;;;5035142;28;20056;-72
2022/10/18 07:05:17;;;;;;;6.03;2.70;;;11.30;99.90;;;;;;5018339;28;20036;-72
2022/10/18 07:07:43;;;;;;;6.70;2.30;;;11.30;99.90;;;;;;5034707;28;20044;-72
2022/10/18 07:10:09;;;;;;;6.05;2.80;;;11.20;99.90;;;;;;5018411;28;20384;-72
2022/10/18 07:12:35;;;;;;;4.60;2.65;;;11.30;99.90;;;;;;5034632;28;20041;-72
2022/10/18 07:15:00;;;;;;;4.38;2.78;;;11.50;99.90;;;;;;5034609;28;20388;-72
2022/10/18 07:17:26;;;;;;;3.50;2.20;;;11.20;99.90;;;;;;5002064;28;20131;-72
2022/10/18 07:19:52;;;;;;;5.75;2.60;;;11.20;99.90;;;;;;5001859;28;20037;-72
2022/10/18 07:22:18;;;;;;;4.78;3.10;;;11.20;99.90;;;;;;5034890;28;20033;-72
2022/10/18 07:24:43;;;;;;;7.95;2.28;;;11.30;99.90;;;;;;5018100;28;20123;-72
2022/10/18 07:27:09;;;;;;;4.72;2.80;;;11.50;99.90;;;;;;5034795;28;20033;-72
2022/10/18 07:35:41;;;;;;;5.38;2.85;;;11.30;99.90;;;;;;4993384;28;20053;-77
2022/10/18 07:38:06;;;;;;;5.78;2.92;;;11.40;99.90;;;;;;4978822;28;20038;-77
2022/10/18 07:40:32;;;;;;;5.45;2.75;;;11.40;99.90;;;;;;4978921;28;20417;-77
2022/10/18 07:42:58;;;;;;;6.47;2.97;;;11.40;99.90;;;;;;4978891;28;20064;-77
2022/10/18 07:45:24;;;;;;;4.70;2.67;;;11.70;99.90;;;;;;4978857;28;20038;-77
2022/10/18 07:50:17;;;;;;;4.78;2.50;;;11.50;99.90;;;;;;5053034;23;20048;-79
2022/10/18 07:52:43;;;;;;;8.40;2.80;;;11.50;99.90;;;;;;5017769;28;20508;-79
2022/10/18 07:55:09;;;;;;;10.73;2.80;;;11.50;99.90;;;;;;5018202;28;20068;-79
2022/10/18 07:57:34;;;;;;;4.80;2.78;;;11.50;99.90;;;;;;5035142;28;20033;-78
2022/10/18 08:00:00;;;;;;;8.20;2.97;;;11.60;99.90;;;;;;5037922;28;20041;-79
2022/10/18 08:02:26;;;;;;;7.07;2.92;;;11.60;99.90;;;;;;5021947;28;20131;-77
2022/10/18 08:04:51;;;;;;;8.32;2.53;;;11.60;99.90;;;;;;5037769;28;20047;-79
2022/10/18 08:07:17;;;;;;;7.13;2.92;;;11.60;99.90;;;;;;5021545;28;20419;-79
2022/10/18 08:09:43;;;;;;;9.77;3.30;;;11.70;99.90;;;;;;5021333;28;20056;-78
2022/10/18 08:12:08;;;;;;;3.97;2.40;;;11.70;99.90;;;;;;5037908;28;20506;-79
2022/10/18 08:14:34;;;;;;;9.68;4.15;;;11.80;99.90;;;;;;5037522;28;20116;-79
2022/10/18 08:17:00;;;;;;;5.53;3.10;;;11.80;99.90;;;;;;5021114;28;20044;-78
2022/10/18 08:25:06;;;;;;;5.22;2.72;;;12.00;99.90;;;;;;5036271;22;20084;-75
2022/10/18 08:27:31;;;;;;;4.72;2.72;;;12.00;99.90;;;;;;5001241;28;20050;-75
2022/10/18 08:29:58;;;;;;;4.55;2.60;;;12.00;99.90;;;;;;5017610;28;20052;-74
2022/10/18 08:32:24;;;;;;;4.03;2.30;;;12.00;99.90;;;;;;5017428;28;20064;-75
2022/10/18 08:34:50;;;;;;;5.30;2.50;;;12.00;99.90;;;;;;5017724;28;20045;-74
2022/10/18 08:37:16;;;;;;;3.85;2.33;;;12.00;99.90;;;;;;5001554;28;20045;-74
2022/10/18 08:39:41;;;;;;;4.25;2.65;;;12.00;99.90;;;;;;5041241;23;20419;-75
2022/10/18 08:42:10;;;;;;;5.80;3.00;;;12.00;99.90;;;;;;5008006;23;20431;-74
2022/10/18 08:44:48;;;;;;;4.65;2.88;;;12.00;99.90;;;;;;5001090;28;20060;-74
2022/10/18 08:47:29;;;;;;;3.72;2.05;;;12.00;99.90;;;;;;5017295;28;20049;-74
2022/10/18 08:50:00;;;;;;;3.55;2.08;;;12.00;99.90;;;;;;5017127;28;20044;-75
2022/10/18 08:52:35;;;;;;;5.65;2.60;;;12.00;99.90;;;;;;5017269;28;20050;-74
2022/10/18 08:55:17;;;;;;;8.90;2.67;;;12.10;99.90;;;;;;5017148;28;20041;-74
2022/10/18 08:57:43;;;;;;;4.55;2.22;;;12.10;99.90;;;;;;5016994;28;20033;-74
2022/10/18 09:00:18;;;;;;;4.95;2.33;;;12.10;99.90;;;;;;5017063;28;20049;-74
2022/10/18 09:02:53;;;;;;;6.13;2.38;;;12.20;99.90;;;;;;5017176;28;20511;-75
2022/10/18 09:05:38;;;;;;;4.03;2.72;;;12.20;99.90;;;;;;5016892;28;20124;-74
2022/10/18 09:08:17;;;;;;;4.25;2.47;;;12.20;99.90;;;;;;5016933;28;20038;-75
2022/10/18 09:14:30;;;;;;;8.38;2.50;;;12.30;99.90;;;;;;3349348;26;20088;-70
2022/10/18 09:17:07;;;;;;;4.50;2.65;;;12.30;99.90;;;;;;5013823;28;20129;-70
2022/10/18 09:19:44;;;;;;;5.57;2.30;;;12.40;99.90;;;;;;5012420;28;20450;-70
2022/10/18 09:22:17;;;;;;;3.28;2.17;;;12.30;99.90;;;;;;4996885;28;20041;-70
2022/10/18 09:24:48;;;;;;;5.15;2.30;;;12.40;99.90;;;;;;4996678;28;20042;-69
2022/10/18 09:31:21;;;;;;;5.93;1.95;;;12.50;99.90;;;;;;3840770;23;20503;-75
2022/10/18 09:34:13;;;;;;;6.60;2.28;;;12.60;99.90;;;;;;5016435;28;20050;-75
2022/10/18 09:36:40;;;;;;;2.60;1.60;;;12.70;99.90;;;;;;4999437;28;20089;-75
2022/10/18 09:39:20;;;;;;;2.33;1.60;;;12.80;99.90;;;;;;5016349;28;20067;-75
2022/10/18 09:41:55;;;;;;;7.85;2.13;;;12.80;99.90;;;;;;4999957;28;20404;-75
2022/10/18 09:48:13;;;;;;;3.05;1.80;;;12.90;99.90;;;;;;5011962;28;20501;-69
2022/10/18 09:51:02;;;;;;;4.43;1.98;;;13.00;99.90;;;;;;5012777;28;20050;-69
2022/10/18 09:54:02;;;;;;;5.60;1.80;;;13.00;99.90;;;;;;4979642;28;20050;-70
2022/10/18 09:56:41;;;;;;;4.68;1.90;;;13.20;99.90;;;;;;5012698;28;20046;-70
2022/10/18 09:59:26;;;;;;;9.38;2.08;;;13.30;99.90;;;;;;4996206;28;20092;-69
2022/10/18 10:05:12;;;;;;;3.00;1.60;;;13.40;99.90;;;;;;3223604;22;20060;-77
2022/10/18 10:07:44;;;;;;;4.35;1.35;;;13.50;99.90;;;;;;5035624;28;20072;-77
2022/10/18 10:10:24;;;;;;;1.60;1.40;;;13.60;99.90;;;;;;5035656;28;20044;-78
2022/10/18 10:13:16;;;;;;;5.03;1.58;;;13.70;99.90;;;;;;5019034;28;20049;-78
2022/10/18 10:15:53;;;;;;;2.42;0.98;;;13.90;99.90;;;;;;5035424;28;20107;-78
2022/10/18 10:22:26;;;;;;;4.70;1.23;;;14.00;99.90;;;;;;5082011;22;20538;31
2022/10/18 10:24:54;;;;;;;4.32;1.00;;;14.10;99.90;;;;;;4974582;28;20078;-78
2022/10/18 10:27:31;;;;;;;4.30;0.95;;;14.20;99.90;;;;;;4960753;28;20822;-77
2022/10/18 10:29:59;;;;;;;5.20;0.85;;;14.30;99.90;;;;;;4976747;28;20065;-77
2022/10/18 10:32:29;;;;;;;2.63;1.00;;;14.50;99.90;;;;;;4976380;28;20053;-78
2022/10/18 10:34:55;;;;;;;4.75;1.08;;;14.60;99.90;;;;;;4960250;28;20050;-77
2022/10/18 10:40:05;;;;;;;;;;;14.60;99.90;;;;;;5029873;22;19921;-76
2022/10/18 10:42:32;;;;;;;1.25;0.40;;;14.50;99.90;;;;;;5031915;28;20379;-76
2022/10/18 10:45:00;;;;;;;2.50;0.63;;;14.60;99.90;;;;;;5015169;28;20045;-76
2022/10/18 10:47:30;;;;;;;2.90;0.93;;;14.70;99.90;;;;;;4998929;28;20127;-76
2022/10/18 10:49:55;;;;;;;3.38;0.85;;;14.90;99.90;;;;;;5015236;28;20064;-76
2022/10/18 10:56:04;;;;;;;2.38;0.90;;;15.00;99.90;;;;;;5064477;22;20418;-64
2022/10/18 10:58:36;;;;;;;3.17;1.02;;;15.00;99.90;;;;;;5052559;28;20080;-66
2022/10/18 11:01:19;;;;;;;10.63;0.60;;;14.90;99.90;;;;;;5052829;28;20075;-63
2022/10/18 11:03:50;;;;;;;1.73;0.57;;;14.90;99.90;;;;;;5052630;28;20041;-64
2022/10/18 11:06:53;;;;;;;2.65;0.50;;;14.90;99.90;;;;;;5052914;28;20116;-64
2022/10/18 11:13:21;;;;;;;2.53;0.60;;;15.20;99.90;;;;;;4351231;22;20053;-76
2022/10/18 11:15:53;;;;;;;1.77;0.60;;;15.30;99.90;;;;;;5034753;28;20110;-76
2022/10/18 11:18:32;;;;;;;1.77;0.50;;;15.40;99.90;;;;;;5034841;28;20048;-76
2022/10/18 11:21:06;;;;;;;2.22;0.88;;;15.40;99.90;;;;;;5034715;28;20045;-76
2022/10/18 11:23:35;;;;;;;1.27;0.35;;;15.40;99.90;;;;;;5018194;28;20040;-76
2022/10/18 11:29:57;;;;;;;1.98;0.60;;;15.30;99.90;;;;;;5064214;22;20563;-69
2022/10/18 11:32:53;;;;;;;3.72;0.38;;;15.10;99.90;;;;;;5035370;28;20510;-69
2022/10/18 11:35:43;;;;;;;2.10;0.52;;;15.10;99.90;;;;;;5056486;28;20041;-68
2022/10/18 11:38:14;;;;;;;0.95;0.40;;;15.10;99.90;;;;;;5038736;28;20536;-69
2022/10/18 11:41:05;;;;;;;3.50;0.60;;;15.20;99.90;;;;;;5056127;28;20049;-69
2022/10/18 11:47:20;;;;;;;3.60;0.40;;;15.30;99.90;;;;;;2114063;22;20053;-75
2022/10/18 11:49:56;;;;;;;2.60;0.68;;;15.10;99.90;;;;;;5001946;28;20040;-76
2022/10/18 11:52:31;;;;;;;2.95;0.38;;;15.00;99.90;;;;;;5039009;28;20041;-76
2022/10/18 11:54:56;;;;;;;3.00;0.90;;;14.90;99.90;;;;;;5038087;28;20090;-76
2022/10/18 11:57:34;;;;;;;1.05;0.40;;;14.80;99.90;;;;;;5038067;28;20037;-76
2022/10/18 12:03:58;;;;;;;3.35;0.55;;;14.70;99.90;;;;;;5068072;22;20140;-71
2022/10/18 12:09:24;;;;;;;1.70;0.20;;;15.00;99.90;;;;;;1475906;26;20136;-69
2022/10/18 12:11:57;;;;;;;5.32;0.30;;;15.00;99.90;;;;;;4979246;28;20054;-68
2022/10/18 12:14:28;;;;;;;3.10;0.28;;;15.10;99.90;;;;;;4996682;28;20073;-69
2022/10/18 12:16:57;;;;;;;1.63;0.40;;;15.10;99.90;;;;;;4996824;28;20124;-69
2022/10/18 12:19:27;;;;;;;0.68;0.35;;;15.30;99.90;;;;;;4979085;28;20462;-69
2022/10/18 12:21:55;;;;;;;1.52;0.65;;;15.50;99.90;;;;;;4979342;28;20046;-69
2022/10/18 12:27:44;;;;;;;3.40;0.47;;;15.90;99.90;;;;;;5096589;22;20057;-77
2022/10/18 12:30:50;;;;;;;0.85;0.40;;;16.00;99.90;;;;;;5021583;28;20391;-78
2022/10/18 12:33:25;;;;;;;2.95;0.52;;;16.10;99.90;;;;;;5021447;28;20418;-78
2022/10/18 12:36:18;;;;;;;3.95;0.70;;;16.00;99.90;;;;;;5021218;28;20029;-78
2022/10/18 12:38:55;;;;;;;5.32;0.40;;;15.80;99.90;;;;;;5037654;28;20550;-78
2022/10/18 12:56:47;;;;;;;5.40;0.75;;;14.80;99.90;;;;;;4988211;23;20051;-64
2022/10/18 12:59:15;;;;;;;3.45;0.30;;;14.70;99.90;;;;;;4957327;29;20045;-63
2022/10/18 13:01:50;;;;;;;0.75;0.25;;;14.70;99.90;;;;;;4956960;29;20043;-64
2022/10/18 13:04:28;;;;;;;1.90;0.50;;;14.80;99.90;;;;;;4957297;29;20078;-63
2022/10/18 13:06:59;;;;;;;4.75;0.73;;;15.00;99.90;;;;;;4956948;29;20094;-64
2022/10/18 13:13:15;;;;;;;4.20;0.95;;;15.40;99.90;;;;;;4999426;23;20062;-75
2022/10/18 13:15:56;;;;;;;4.72;0.20;;;15.40;99.90;;;;;;4939571;29;20043;-76
2022/10/18 13:18:47;;;;;;;2.50;0.50;;;15.40;99.90;;;;;;4923728;29;20125;-75
2022/10/18 13:21:42;;;;;;;2.00;0.50;;;15.40;99.90;;;;;;4939452;29;20039;-76
2022/10/18 13:24:25;;;;;;;3.42;0.63;;;15.40;99.90;;;;;;4939653;29;20043;-75
2022/10/18 13:33:18;;;;;;;1.50;0.52;;;15.60;99.90;;;;;;2124092;23;20110;-77
2022/10/18 13:35:44;;;;;;;2.42;0.75;;;15.60;99.90;;;;;;4923305;29;20147;-78
2022/10/18 13:38:32;;;;;;;2.67;0.63;;;15.60;99.90;;;;;;4939269;29;20283;-77
2022/10/18 13:41:03;;;;;;;1.58;0.40;;;15.60;99.90;;;;;;4923308;29;20035;-77
2022/10/18 13:43:51;;;;;;;2.78;0.90;;;15.50;99.90;;;;;;4938975;29;20090;-77
2022/10/18 13:46:23;;;;;;;3.17;0.60;;;15.40;99.90;;;;;;4923326;29;20035;-77
2022/10/18 13:48:52;;;;;;;1.50;0.28;;;15.40;99.90;;;;;;4939207;29;20094;-77
2022/10/18 13:51:39;;;;;;;0.70;0.38;;;15.40;99.90;;;;;;4923378;29;20403;-77
2022/10/18 13:54:30;;;;;;;3.90;0.60;;;15.40;99.90;;;;;;4923153;29;20059;-77
2022/10/18 13:57:41;;;;;;;2.92;0.65;;;15.30;99.90;;;;;;4922540;29;20065;-78
2022/10/18 14:00:34;;;;;;;1.80;0.30;;;15.20;99.90;;;;;;4922963;29;20051;-77
2022/10/18 14:08:40;;;;;;;;;;;15.10;99.90;;;;;;4946366;23;20133;-70
2022/10/18 14:11:26;;;;;;;2.30;0.47;;;15.10;99.90;;;;;;4922770;29;20365;-71
2022/10/18 14:14:01;;;;;;;1.23;0.30;;;15.10;99.90;;;;;;4955983;29;20394;-70
2022/10/18 14:16:40;;;;;;;3.85;0.50;;;15.10;99.90;;;;;;4955912;29;20509;-70
2022/10/18 14:19:35;;;;;;;3.88;0.70;;;15.00;99.90;;;;;;4955489;29;20051;-70
2022/10/18 14:22:15;;;;;;;0.95;0.25;;;15.00;99.90;;;;;;4904488;29;20090;-70
2022/10/18 14:27:18;;;;;;;4.25;0.30;;;14.90;99.90;;;;;;5105752;23;19933;-70
2022/10/18 14:29:46;;;;;;;0.73;0.40;;;14.90;99.90;;;;;;4955527;29;20183;-69
2022/10/18 14:32:42;;;;;;;5.10;0.90;;;15.00;99.90;;;;;;4955231;29;20091;-69
2022/10/18 14:35:21;;;;;;;4.35;0.63;;;14.90;99.90;;;;;;4954060;29;20417;-70
2022/10/18 14:37:49;;;;;;;2.63;0.65;;;14.90;99.90;;;;;;4938132;29;20051;-69
2022/10/18 14:42:47;;;;;;;1.35;0.43;;;14.90;99.90;;;;;;4973113;23;20055;-65
2022/10/18 14:45:20;;;;;;;3.80;0.52;;;14.80;99.40;;;;;;4998247;23;20220;-73
2022/10/18 14:47:46;;;;;;;1.20;0.35;;;14.80;99.90;;;;;;4922135;29;20043;-73
2022/10/18 14:50:24;;;;;;;1.42;0.60;;;14.80;99.90;;;;;;4922317;29;20471;-73
2022/10/18 14:52:50;;;;;;;2.03;0.50;;;14.90;99.90;;;;;;4937916;29;20043;-73
2022/10/18 14:55:22;;;;;;;3.10;0.43;;;14.90;99.90;;;;;;4937863;29;20106;-73